sensor_id;sensor_type;location;lat;lon;timestamp;temperature;humidity
13472;DHT22;6808;49.444;11.034;2022-09-29T00:01:28;7.80;99.90
13472;DHT22;6808;49.444;11.034;2022-09-29T00:03:54;7.80;99.90
13472;DHT22;6808;49.444;11.034;2022-09-29T00:06:20;7.80;99.90
13472;DHT22;6808;49.444;11.034;2022-09-29T00:08:45;7.80;99.90
13472;DHT22;6808;49.444;11.034;2022-09-29T00:11:15;7.90;99.90
13472;DHT22;6808;49.444;11.034;2022-09-29T00:13:41;7.90;99.90
13472;DHT22;6808;49.444;11.034;2022-09-29T00:16:07;7.90;99.90
13472;DHT22;6808;49.444;11.034;2022-09-29T00:18:33;7.90;99.90
13472;DHT22;6808;49.444;11.034;2022-09-29T00:21:05;7.90;99.90
13472;DHT22;6808;49.444;11.034;2022-09-29T00:23:32;7.80;99.90
13472;DHT22;6808;49.444;11.034;2022-09-29T00:26:09;7.80;99.90
13472;DHT22;6808;49.444;11.034;2022-09-29T00:28:37;7.80;99.90
13472;DHT22;6808;49.444;11.034;2022-09-29T00:31:05;7.80;99.90
13472;DHT22;6808;49.444;11.034;2022-09-29T00:33:33;7.70;99.90
13472;DHT22;6808;49.444;11.034;2022-09-29T00:36:01;7.70;99.90
13472;DHT22;6808;49.444;11.034;2022-09-29T00:38:28;7.60;99.90
13472;DHT22;6808;49.444;11.034;2022-09-29T00:40:54;7.60;99.90
13472;DHT22;6808;49.444;11.034;2022-09-29T00:46:12;7.40;99.90
13472;DHT22;6808;49.444;11.034;2022-09-29T00:48:40;7.40;99.90
13472;DHT22;6808;49.444;11.034;2022-09-29T00:51:06;7.30;99.90
13472;DHT22;6808;49.444;11.034;2022-09-29T00:53:32;7.40;99.90
13472;DHT22;6808;49.444;11.034;2022-09-29T00:56:03;7.40;99.90
13472;DHT22;6808;49.444;11.034;2022-09-29T00:58:34;7.40;99.90
13472;DHT22;6808;49.444;11.034;2022-09-29T01:01:03;7.50;99.90
13472;DHT22;6808;49.444;11.034;2022-09-29T01:03:36;7.50;99.90
13472;DHT22;6808;49.444;11.034;2022-09-29T01:06:09;7.50;99.90
13472;DHT22;6808;49.444;11.034;2022-09-29T01:09:02;7.50;99.90
13472;DHT22;6808;49.444;11.034;2022-09-29T01:11:29;7.50;99.90
13472;DHT22;6808;49.444;11.034;2022-09-29T01:13:56;7.50;99.90
13472;DHT22;6808;49.444;11.034;2022-09-29T01:16:28;7.50;99.90
13472;DHT22;6808;49.444;11.034;2022-09-29T01:18:54;7.50;99.90
13472;DHT22;6808;49.444;11.034;2022-09-29T01:24:53;7.40;99.90
13472;DHT22;6808;49.444;11.034;2022-09-29T01:27:41;7.30;99.90
13472;DHT22;6808;49.444;11.034;2022-09-29T01:36:16;7.30;99.90
13472;DHT22;6808;49.444;11.034;2022-09-29T01:41:40;7.30;99.90
13472;DHT22;6808;49.444;11.034;2022-09-29T01:44:36;7.30;99.90
13472;DHT22;6808;49.444;11.034;2022-09-29T01:47:08;7.20;99.90
13472;DHT22;6808;49.444;11.034;2022-09-29T01:49:37;7.20;99.90
13472;DHT22;6808;49.444;11.034;2022-09-29T01:52:17;7.30;99.90
13472;DHT22;6808;49.444;11.034;2022-09-29T01:55:07;7.30;99.90
13472;DHT22;6808;49.444;11.034;2022-09-29T01:57:34;7.30;99.90
13472;DHT22;6808;49.444;11.034;2022-09-29T02:02:40;7.30;99.90
13472;DHT22;6808;49.444;11.034;2022-09-29T02:05:17;7.30;99.90
13472;DHT22;6808;49.444;11.034;2022-09-29T02:07:44;7.40;99.90
13472;DHT22;6808;49.444;11.034;2022-09-29T02:10:28;7.50;99.90
13472;DHT22;6808;49.444;11.034;2022-09-29T02:12:56;7.50;99.90
13472;DHT22;6808;49.444;11.034;2022-09-29T02:15:25;7.50;99.90
13472;DHT22;6808;49.444;11.034;2022-09-29T02:17:54;7.40;99.90
13472;DHT22;6808;49.444;11.034;2022-09-29T02:20:22;7.40;99.90
13472;DHT22;6808;49.444;11.034;2022-09-29T02:22:48;7.40;99.90
13472;DHT22;6808;49.444;11.034;2022-09-29T02:25:16;7.40;99.90
13472;DHT22;6808;49.444;11.034;2022-09-29T02:27:44;7.40;99.90
13472;DHT22;6808;49.444;11.034;2022-09-29T02:30:12;7.40;99.90
13472;DHT22;6808;49.444;11.034;2022-09-29T02:32:38;7.40;99.90
13472;DHT22;6808;49.444;11.034;2022-09-29T02:35:06;7.40;99.90
13472;DHT22;6808;49.444;11.034;2022-09-29T02:40:58;7.20;99.90
13472;DHT22;6808;49.444;11.034;2022-09-29T02:51:18;7.10;99.90
13472;DHT22;6808;49.444;11.034;2022-09-29T02:59:25;7.30;99.90
13472;DHT22;6808;49.444;11.034;2022-09-29T03:01:55;7.30;99.90
13472;DHT22;6808;49.444;11.034;2022-09-29T03:04:24;7.40;99.90
13472;DHT22;6808;49.444;11.034;2022-09-29T03:06:49;7.40;99.90
13472;DHT22;6808;49.444;11.034;2022-09-29T03:09:15;7.40;99.90
13472;DHT22;6808;49.444;11.034;2022-09-29T03:11:41;7.30;99.90
13472;DHT22;6808;49.444;11.034;2022-09-29T03:14:07;7.30;99.90
13472;DHT22;6808;49.444;11.034;2022-09-29T03:16:33;7.20;99.90
13472;DHT22;6808;49.444;11.034;2022-09-29T03:18:59;7.20;99.90
13472;DHT22;6808;49.444;11.034;2022-09-29T03:21:25;7.10;99.90
13472;DHT22;6808;49.444;11.034;2022-09-29T03:23:51;7.10;99.90
13472;DHT22;6808;49.444;11.034;2022-09-29T03:26:17;7.10;99.90
13472;DHT22;6808;49.444;11.034;2022-09-29T03:28:42;7.10;99.90
13472;DHT22;6808;49.444;11.034;2022-09-29T03:31:08;7.00;99.90
13472;DHT22;6808;49.444;11.034;2022-09-29T03:33:35;7.00;99.90
13472;DHT22;6808;49.444;11.034;2022-09-29T03:36:03;7.00;99.90
13472;DHT22;6808;49.444;11.034;2022-09-29T03:38:30;7.00;99.90
13472;DHT22;6808;49.444;11.034;2022-09-29T03:40:56;7.00;99.90
13472;DHT22;6808;49.444;11.034;2022-09-29T03:43:21;7.00;99.90
13472;DHT22;6808;49.444;11.034;2022-09-29T03:45:51;7.00;99.90
13472;DHT22;6808;49.444;11.034;2022-09-29T03:48:18;7.10;99.90
13472;DHT22;6808;49.444;11.034;2022-09-29T03:50:45;7.10;99.90
13472;DHT22;6808;49.444;11.034;2022-09-29T03:53:12;7.10;99.90
13472;DHT22;6808;49.444;11.034;2022-09-29T03:55:37;7.10;99.90
13472;DHT22;6808;49.444;11.034;2022-09-29T03:58:03;7.10;99.90
13472;DHT22;6808;49.444;11.034;2022-09-29T04:00:29;7.20;99.90
13472;DHT22;6808;49.444;11.034;2022-09-29T04:02:54;7.10;99.90
13472;DHT22;6808;49.444;11.034;2022-09-29T04:05:20;7.20;99.90
13472;DHT22;6808;49.444;11.034;2022-09-29T04:07:46;7.20;99.90
13472;DHT22;6808;49.444;11.034;2022-09-29T04:10:12;7.20;99.90
13472;DHT22;6808;49.444;11.034;2022-09-29T04:12:37;7.10;99.90
13472;DHT22;6808;49.444;11.034;2022-09-29T04:15:03;7.10;99.90
13472;DHT22;6808;49.444;11.034;2022-09-29T04:17:29;7.10;99.90
13472;DHT22;6808;49.444;11.034;2022-09-29T04:19:55;7.00;99.90
13472;DHT22;6808;49.444;11.034;2022-09-29T04:22:20;7.10;99.90
13472;DHT22;6808;49.444;11.034;2022-09-29T04:24:46;7.10;99.90
13472;DHT22;6808;49.444;11.034;2022-09-29T04:27:16;7.10;99.90
13472;DHT22;6808;49.444;11.034;2022-09-29T04:29:42;7.10;99.90
13472;DHT22;6808;49.444;11.034;2022-09-29T04:32:08;7.10;99.90
13472;DHT22;6808;49.444;11.034;2022-09-29T04:34:33;7.00;99.90
13472;DHT22;6808;49.444;11.034;2022-09-29T04:36:59;7.00;99.90
13472;DHT22;6808;49.444;11.034;2022-09-29T04:39:25;6.90;99.90
13472;DHT22;6808;49.444;11.034;2022-09-29T04:41:51;6.90;99.90
13472;DHT22;6808;49.444;11.034;2022-09-29T04:44:17;6.90;99.90
13472;DHT22;6808;49.444;11.034;2022-09-29T04:46:48;6.80;99.90
13472;DHT22;6808;49.444;11.034;2022-09-29T04:49:14;6.90;99.90
13472;DHT22;6808;49.444;11.034;2022-09-29T04:51:39;6.90;99.90
13472;DHT22;6808;49.444;11.034;2022-09-29T04:54:05;6.90;99.90
13472;DHT22;6808;49.444;11.034;2022-09-29T04:56:31;6.80;99.90
13472;DHT22;6808;49.444;11.034;2022-09-29T04:58:57;6.70;99.90
13472;DHT22;6808;49.444;11.034;2022-09-29T05:01:23;6.70;99.90
13472;DHT22;6808;49.444;11.034;2022-09-29T05:03:49;6.70;99.90
13472;DHT22;6808;49.444;11.034;2022-09-29T05:06:14;6.70;99.90
13472;DHT22;6808;49.444;11.034;2022-09-29T05:08:40;6.70;99.90
13472;DHT22;6808;49.444;11.034;2022-09-29T05:11:07;6.60;99.90
13472;DHT22;6808;49.444;11.034;2022-09-29T05:13:32;6.50;99.90
13472;DHT22;6808;49.444;11.034;2022-09-29T05:15:58;6.50;99.90
13472;DHT22;6808;49.444;11.034;2022-09-29T05:18:24;6.40;99.90
13472;DHT22;6808;49.444;11.034;2022-09-29T05:20:50;6.30;99.90
13472;DHT22;6808;49.444;11.034;2022-09-29T05:23:15;6.30;99.90
13472;DHT22;6808;49.444;11.034;2022-09-29T05:25:41;6.10;99.90
13472;DHT22;6808;49.444;11.034;2022-09-29T05:28:08;6.10;99.90
13472;DHT22;6808;49.444;11.034;2022-09-29T05:30:35;6.10;99.90
13472;DHT22;6808;49.444;11.034;2022-09-29T05:33:01;6.10;99.90
13472;DHT22;6808;49.444;11.034;2022-09-29T05:35:26;6.10;99.90
13472;DHT22;6808;49.444;11.034;2022-09-29T05:37:52;6.20;99.90
13472;DHT22;6808;49.444;11.034;2022-09-29T05:40:18;6.00;99.90
13472;DHT22;6808;49.444;11.034;2022-09-29T05:42:44;6.00;99.90
13472;DHT22;6808;49.444;11.034;2022-09-29T05:45:09;5.90;99.90
13472;DHT22;6808;49.444;11.034;2022-09-29T05:47:40;6.00;99.90
13472;DHT22;6808;49.444;11.034;2022-09-29T05:50:07;6.00;99.90
13472;DHT22;6808;49.444;11.034;2022-09-29T05:52:32;6.10;99.90
13472;DHT22;6808;49.444;11.034;2022-09-29T05:54:58;6.20;99.90
13472;DHT22;6808;49.444;11.034;2022-09-29T05:57:24;6.30;99.90
13472;DHT22;6808;49.444;11.034;2022-09-29T05:59:49;6.30;99.90
13472;DHT22;6808;49.444;11.034;2022-09-29T06:02:15;6.30;99.90
13472;DHT22;6808;49.444;11.034;2022-09-29T06:04:41;6.20;99.90
13472;DHT22;6808;49.444;11.034;2022-09-29T06:07:06;6.20;99.90
13472;DHT22;6808;49.444;11.034;2022-09-29T06:09:33;6.20;99.90
13472;DHT22;6808;49.444;11.034;2022-09-29T06:12:00;6.20;99.90
13472;DHT22;6808;49.444;11.034;2022-09-29T06:14:25;6.20;99.90
13472;DHT22;6808;49.444;11.034;2022-09-29T06:16:51;6.20;99.90
13472;DHT22;6808;49.444;11.034;2022-09-29T06:19:16;6.10;99.90
13472;DHT22;6808;49.444;11.034;2022-09-29T06:21:42;6.00;99.90
13472;DHT22;6808;49.444;11.034;2022-09-29T06:24:08;6.00;99.90
13472;DHT22;6808;49.444;11.034;2022-09-29T06:26:33;6.10;99.90
13472;DHT22;6808;49.444;11.034;2022-09-29T06:29:00;6.10;99.90
13472;DHT22;6808;49.444;11.034;2022-09-29T06:31:27;6.20;99.90
13472;DHT22;6808;49.444;11.034;2022-09-29T06:33:56;6.30;99.90
13472;DHT22;6808;49.444;11.034;2022-09-29T06:36:35;6.40;99.90
13472;DHT22;6808;49.444;11.034;2022-09-29T06:39:21;6.40;99.90
13472;DHT22;6808;49.444;11.034;2022-09-29T06:41:46;6.40;99.90
13472;DHT22;6808;49.444;11.034;2022-09-29T06:44:22;6.50;99.90
13472;DHT22;6808;49.444;11.034;2022-09-29T06:46:51;6.40;99.90
13472;DHT22;6808;49.444;11.034;2022-09-29T06:49:17;6.40;99.90
13472;DHT22;6808;49.444;11.034;2022-09-29T06:51:43;6.40;99.90
13472;DHT22;6808;49.444;11.034;2022-09-29T06:54:10;6.30;99.90
13472;DHT22;6808;49.444;11.034;2022-09-29T06:56:36;6.20;99.90
13472;DHT22;6808;49.444;11.034;2022-09-29T06:59:01;6.30;99.90
13472;DHT22;6808;49.444;11.034;2022-09-29T07:01:27;6.30;99.90
13472;DHT22;6808;49.444;11.034;2022-09-29T07:03:53;6.40;99.90
13472;DHT22;6808;49.444;11.034;2022-09-29T07:06:18;6.30;99.90
13472;DHT22;6808;49.444;11.034;2022-09-29T07:08:44;6.20;99.90
13472;DHT22;6808;49.444;11.034;2022-09-29T07:11:10;6.30;99.90
13472;DHT22;6808;49.444;11.034;2022-09-29T07:13:36;6.30;99.90
13472;DHT22;6808;49.444;11.034;2022-09-29T07:16:08;6.20;99.90
13472;DHT22;6808;49.444;11.034;2022-09-29T07:18:37;6.10;99.90
13472;DHT22;6808;49.444;11.034;2022-09-29T07:21:04;6.20;99.90
13472;DHT22;6808;49.444;11.034;2022-09-29T07:23:31;6.30;99.90
13472;DHT22;6808;49.444;11.034;2022-09-29T07:25:57;6.30;99.90
13472;DHT22;6808;49.444;11.034;2022-09-29T07:28:22;6.30;99.90
13472;DHT22;6808;49.444;11.034;2022-09-29T07:30:58;6.30;99.90
13472;DHT22;6808;49.444;11.034;2022-09-29T07:33:23;6.30;99.90
13472;DHT22;6808;49.444;11.034;2022-09-29T07:35:51;6.40;99.90
13472;DHT22;6808;49.444;11.034;2022-09-29T07:38:17;6.40;99.90
13472;DHT22;6808;49.444;11.034;2022-09-29T07:40:42;6.50;99.90
13472;DHT22;6808;49.444;11.034;2022-09-29T07:43:08;6.70;99.90
13472;DHT22;6808;49.444;11.034;2022-09-29T07:45:34;6.60;99.90
13472;DHT22;6808;49.444;11.034;2022-09-29T07:47:59;6.60;99.90
13472;DHT22;6808;49.444;11.034;2022-09-29T07:50:25;6.60;99.90
13472;DHT22;6808;49.444;11.034;2022-09-29T07:52:51;6.60;99.90
13472;DHT22;6808;49.444;11.034;2022-09-29T07:55:17;6.70;99.90
13472;DHT22;6808;49.444;11.034;2022-09-29T07:57:46;6.70;99.90
13472;DHT22;6808;49.444;11.034;2022-09-29T08:00:12;6.80;99.90
13472;DHT22;6808;49.444;11.034;2022-09-29T08:02:38;6.80;99.90
13472;DHT22;6808;49.444;11.034;2022-09-29T08:05:04;7.00;99.90
13472;DHT22;6808;49.444;11.034;2022-09-29T08:07:29;7.10;99.90
13472;DHT22;6808;49.444;11.034;2022-09-29T08:09:55;7.30;99.90
13472;DHT22;6808;49.444;11.034;2022-09-29T08:12:20;7.30;99.90
13472;DHT22;6808;49.444;11.034;2022-09-29T08:14:46;7.40;99.90
13472;DHT22;6808;49.444;11.034;2022-09-29T08:17:13;7.40;99.90
13472;DHT22;6808;49.444;11.034;2022-09-29T08:19:39;7.50;99.90
13472;DHT22;6808;49.444;11.034;2022-09-29T08:22:04;7.60;99.90
13472;DHT22;6808;49.444;11.034;2022-09-29T08:24:30;7.70;99.90
13472;DHT22;6808;49.444;11.034;2022-09-29T08:26:56;7.80;99.90
13472;DHT22;6808;49.444;11.034;2022-09-29T08:29:22;7.90;99.90
13472;DHT22;6808;49.444;11.034;2022-09-29T08:31:48;7.90;99.90
13472;DHT22;6808;49.444;11.034;2022-09-29T08:34:14;8.00;99.90
13472;DHT22;6808;49.444;11.034;2022-09-29T08:36:40;8.10;99.90
13472;DHT22;6808;49.444;11.034;2022-09-29T08:39:06;8.20;99.90
13472;DHT22;6808;49.444;11.034;2022-09-29T08:46:45;8.50;99.90
13472;DHT22;6808;49.444;11.034;2022-09-29T08:52:22;8.60;99.90
13472;DHT22;6808;49.444;11.034;2022-09-29T08:54:53;8.80;99.90
13472;DHT22;6808;49.444;11.034;2022-09-29T08:57:21;8.90;99.90
13472;DHT22;6808;49.444;11.034;2022-09-29T08:59:57;9.00;99.90
13472;DHT22;6808;49.444;11.034;2022-09-29T09:08:37;9.30;99.90
13472;DHT22;6808;49.444;11.034;2022-09-29T09:11:13;9.30;99.90
13472;DHT22;6808;49.444;11.034;2022-09-29T09:19:40;9.70;99.90
13472;DHT22;6808;49.444;11.034;2022-09-29T09:22:29;9.80;99.90
13472;DHT22;6808;49.444;11.034;2022-09-29T09:25:00;9.90;99.90
13472;DHT22;6808;49.444;11.034;2022-09-29T09:27:39;9.90;99.90
13472;DHT22;6808;49.444;11.034;2022-09-29T09:30:12;9.90;99.90
13472;DHT22;6808;49.444;11.034;2022-09-29T09:32:48;10.00;99.90
13472;DHT22;6808;49.444;11.034;2022-09-29T09:37:47;10.20;99.90
13472;DHT22;6808;49.444;11.034;2022-09-29T09:40:20;10.20;99.90
13472;DHT22;6808;49.444;11.034;2022-09-29T09:42:58;10.20;99.90
13472;DHT22;6808;49.444;11.034;2022-09-29T09:48:35;10.40;99.90
13472;DHT22;6808;49.444;11.034;2022-09-29T09:53:49;10.50;99.90
13472;DHT22;6808;49.444;11.034;2022-09-29T10:01:56;10.60;99.90
13472;DHT22;6808;49.444;11.034;2022-09-29T10:04:22;10.70;99.90
13472;DHT22;6808;49.444;11.034;2022-09-29T10:06:51;10.80;99.90
13472;DHT22;6808;49.444;11.034;2022-09-29T10:09:16;10.80;99.90
13472;DHT22;6808;49.444;11.034;2022-09-29T10:11:44;10.90;99.90
13472;DHT22;6808;49.444;11.034;2022-09-29T10:16:49;10.90;99.90
13472;DHT22;6808;49.444;11.034;2022-09-29T10:19:22;11.00;99.90
13472;DHT22;6808;49.444;11.034;2022-09-29T10:21:48;11.00;99.90
13472;DHT22;6808;49.444;11.034;2022-09-29T10:24:22;11.00;99.90
13472;DHT22;6808;49.444;11.034;2022-09-29T10:26:50;11.10;99.90
13472;DHT22;6808;49.444;11.034;2022-09-29T10:29:37;11.20;99.90
13472;DHT22;6808;49.444;11.034;2022-09-29T10:32:15;11.30;99.90
13472;DHT22;6808;49.444;11.034;2022-09-29T10:34:44;11.30;99.90
13472;DHT22;6808;49.444;11.034;2022-09-29T10:39:44;11.50;99.90
13472;DHT22;6808;49.444;11.034;2022-09-29T10:44:52;11.60;99.90
13472;DHT22;6808;49.444;11.034;2022-09-29T10:47:19;11.60;99.90
13472;DHT22;6808;49.444;11.034;2022-09-29T10:49:45;11.60;99.90
13472;DHT22;6808;49.444;11.034;2022-09-29T10:52:21;11.60;99.90
13472;DHT22;6808;49.444;11.034;2022-09-29T10:54:58;11.70;99.90
13472;DHT22;6808;49.444;11.034;2022-09-29T10:57:30;11.70;99.90
13472;DHT22;6808;49.444;11.034;2022-09-29T10:59:57;11.70;99.90
13472;DHT22;6808;49.444;11.034;2022-09-29T11:02:28;11.80;99.90
13472;DHT22;6808;49.444;11.034;2022-09-29T11:04:59;11.80;99.90
13472;DHT22;6808;49.444;11.034;2022-09-29T11:07:25;11.80;99.90
13472;DHT22;6808;49.444;11.034;2022-09-29T11:09:51;11.90;99.90
13472;DHT22;6808;49.444;11.034;2022-09-29T11:12:35;12.00;99.90
13472;DHT22;6808;49.444;11.034;2022-09-29T11:15:25;12.10;99.90
13472;DHT22;6808;49.444;11.034;2022-09-29T11:17:52;12.20;99.90
13472;DHT22;6808;49.444;11.034;2022-09-29T11:20:18;12.20;99.90
13472;DHT22;6808;49.444;11.034;2022-09-29T11:22:55;12.30;99.90
13472;DHT22;6808;49.444;11.034;2022-09-29T11:28:23;12.40;99.90
13472;DHT22;6808;49.444;11.034;2022-09-29T11:33:30;12.60;99.90
13472;DHT22;6808;49.444;11.034;2022-09-29T11:36:14;12.80;99.90
13472;DHT22;6808;49.444;11.034;2022-09-29T11:42:06;12.80;99.90
13472;DHT22;6808;49.444;11.034;2022-09-29T11:47:52;12.70;99.90
13472;DHT22;6808;49.444;11.034;2022-09-29T11:53:18;12.60;99.90
13472;DHT22;6808;49.444;11.034;2022-09-29T11:59:13;12.50;99.90
13472;DHT22;6808;49.444;11.034;2022-09-29T12:07:30;12.50;99.90
13472;DHT22;6808;49.444;11.034;2022-09-29T12:17:56;12.60;99.90
13472;DHT22;6808;49.444;11.034;2022-09-29T12:20:26;12.60;99.90
13472;DHT22;6808;49.444;11.034;2022-09-29T12:22:57;12.60;99.90
13472;DHT22;6808;49.444;11.034;2022-09-29T12:25:27;12.60;99.90
13472;DHT22;6808;49.444;11.034;2022-09-29T12:27:57;12.50;99.90
13472;DHT22;6808;49.444;11.034;2022-09-29T12:30:30;12.50;99.90
13472;DHT22;6808;49.444;11.034;2022-09-29T12:33:05;12.50;99.90
13472;DHT22;6808;49.444;11.034;2022-09-29T12:35:47;12.60;99.90
13472;DHT22;6808;49.444;11.034;2022-09-29T12:38:21;12.60;99.90
13472;DHT22;6808;49.444;11.034;2022-09-29T12:41:20;12.50;99.90
13472;DHT22;6808;49.444;11.034;2022-09-29T12:46:43;12.40;99.90
13472;DHT22;6808;49.444;11.034;2022-09-29T12:52:19;12.30;99.90
13472;DHT22;6808;49.444;11.034;2022-09-29T12:54:52;12.30;99.90
13472;DHT22;6808;49.444;11.034;2022-09-29T12:57:24;12.30;99.90
13472;DHT22;6808;49.444;11.034;2022-09-29T13:00:11;12.30;99.90
13472;DHT22;6808;49.444;11.034;2022-09-29T13:08:37;12.20;99.90
13472;DHT22;6808;49.444;11.034;2022-09-29T13:22:34;12.10;99.90
13472;DHT22;6808;49.444;11.034;2022-09-29T13:25:24;12.00;99.90
13472;DHT22;6808;49.444;11.034;2022-09-29T13:27:53;12.00;99.90
13472;DHT22;6808;49.444;11.034;2022-09-29T13:30:26;12.00;99.90
13472;DHT22;6808;49.444;11.034;2022-09-29T13:35:38;12.10;99.90
13472;DHT22;6808;49.444;11.034;2022-09-29T13:38:06;12.20;99.90
13472;DHT22;6808;49.444;11.034;2022-09-29T13:40:32;12.20;99.90
13472;DHT22;6808;49.444;11.034;2022-09-29T13:43:00;12.20;99.90
13472;DHT22;6808;49.444;11.034;2022-09-29T13:50:49;12.20;98.10
13472;DHT22;6808;49.444;11.034;2022-09-29T13:55:55;12.20;98.50
13472;DHT22;6808;49.444;11.034;2022-09-29T13:58:32;12.20;99.50
13472;DHT22;6808;49.444;11.034;2022-09-29T14:01:03;12.20;99.90
13472;DHT22;6808;49.444;11.034;2022-09-29T14:03:33;12.10;99.10
13472;DHT22;6808;49.444;11.034;2022-09-29T14:06:14;12.10;99.90
13472;DHT22;6808;49.444;11.034;2022-09-29T14:08:48;12.10;99.80
13472;DHT22;6808;49.444;11.034;2022-09-29T14:14:19;12.00;99.90
13472;DHT22;6808;49.444;11.034;2022-09-29T14:17:12;12.00;99.90
13472;DHT22;6808;49.444;11.034;2022-09-29T14:19:50;11.90;99.90
13472;DHT22;6808;49.444;11.034;2022-09-29T14:27:35;11.90;99.90
13472;DHT22;6808;49.444;11.034;2022-09-29T14:35:43;11.80;99.90
13472;DHT22;6808;49.444;11.034;2022-09-29T14:38:14;11.80;99.90
13472;DHT22;6808;49.444;11.034;2022-09-29T14:49:46;11.60;99.90
13472;DHT22;6808;49.444;11.034;2022-09-29T14:52:32;11.50;99.90
13472;DHT22;6808;49.444;11.034;2022-09-29T15:00:21;11.50;99.90
13472;DHT22;6808;49.444;11.034;2022-09-29T15:02:54;11.50;99.90
13472;DHT22;6808;49.444;11.034;2022-09-29T15:05:34;11.50;99.90
13472;DHT22;6808;49.444;11.034;2022-09-29T15:08:01;11.50;99.90
13472;DHT22;6808;49.444;11.034;2022-09-29T15:10:37;11.50;99.90
13472;DHT22;6808;49.444;11.034;2022-09-29T15:13:25;11.40;99.90
13472;DHT22;6808;49.444;11.034;2022-09-29T15:21:11;11.40;99.90
13472;DHT22;6808;49.444;11.034;2022-09-29T15:26:12;11.30;99.90
13472;DHT22;6808;49.444;11.034;2022-09-29T15:28:40;11.40;99.90
13472;DHT22;6808;49.444;11.034;2022-09-29T15:31:08;11.50;99.90
13472;DHT22;6808;49.444;11.034;2022-09-29T15:33:37;11.40;99.90
13472;DHT22;6808;49.444;11.034;2022-09-29T15:36:04;11.40;99.90
13472;DHT22;6808;49.444;11.034;2022-09-29T15:38:36;11.40;99.90
13472;DHT22;6808;49.444;11.034;2022-09-29T15:41:12;11.40;99.90
13472;DHT22;6808;49.444;11.034;2022-09-29T15:43:57;11.40;99.90
13472;DHT22;6808;49.444;11.034;2022-09-29T15:46:38;11.40;99.90
13472;DHT22;6808;49.444;11.034;2022-09-29T15:49:08;11.40;99.90
13472;DHT22;6808;49.444;11.034;2022-09-29T15:51:34;11.30;99.90
13472;DHT22;6808;49.444;11.034;2022-09-29T15:54:02;11.20;99.90
13472;DHT22;6808;49.444;11.034;2022-09-29T15:56:35;11.20;99.90
13472;DHT22;6808;49.444;11.034;2022-09-29T15:59:41;11.20;99.90
13472;DHT22;6808;49.444;11.034;2022-09-29T16:05:00;11.10;99.90
13472;DHT22;6808;49.444;11.034;2022-09-29T16:07:35;11.10;99.90
13472;DHT22;6808;49.444;11.034;2022-09-29T16:10:16;11.10;99.90
13472;DHT22;6808;49.444;11.034;2022-09-29T16:12:57;11.10;99.90
13472;DHT22;6808;49.444;11.034;2022-09-29T16:15:32;11.00;99.90
13472;DHT22;6808;49.444;11.034;2022-09-29T16:18:05;11.00;99.90
13472;DHT22;6808;49.444;11.034;2022-09-29T16:20:34;10.90;99.90
13472;DHT22;6808;49.444;11.034;2022-09-29T16:28:35;10.50;99.90
13472;DHT22;6808;49.444;11.034;2022-09-29T16:31:03;10.30;99.90
13472;DHT22;6808;49.444;11.034;2022-09-29T16:33:34;10.30;99.90
13472;DHT22;6808;49.444;11.034;2022-09-29T16:36:09;10.30;99.90
13472;DHT22;6808;49.444;11.034;2022-09-29T16:38:43;10.30;99.90
13472;DHT22;6808;49.444;11.034;2022-09-29T16:41:27;10.30;99.90
13472;DHT22;6808;49.444;11.034;2022-09-29T16:46:58;10.30;99.90
13472;DHT22;6808;49.444;11.034;2022-09-29T16:49:27;10.30;99.90
13472;DHT22;6808;49.444;11.034;2022-09-29T16:51:59;10.20;99.90
13472;DHT22;6808;49.444;11.034;2022-09-29T16:54:31;10.30;99.90
13472;DHT22;6808;49.444;11.034;2022-09-29T16:59:43;10.30;99.90
13472;DHT22;6808;49.444;11.034;2022-09-29T17:02:10;10.30;99.90
13472;DHT22;6808;49.444;11.034;2022-09-29T17:04:36;10.30;99.90
13472;DHT22;6808;49.444;11.034;2022-09-29T17:07:01;10.20;99.90
13472;DHT22;6808;49.444;11.034;2022-09-29T17:09:27;10.20;99.90
13472;DHT22;6808;49.444;11.034;2022-09-29T17:11:53;10.10;99.90
13472;DHT22;6808;49.444;11.034;2022-09-29T17:14:19;10.20;99.90
13472;DHT22;6808;49.444;11.034;2022-09-29T17:16:46;10.20;99.90
13472;DHT22;6808;49.444;11.034;2022-09-29T17:19:18;10.30;99.90
13472;DHT22;6808;49.444;11.034;2022-09-29T17:21:43;10.30;99.90
13472;DHT22;6808;49.444;11.034;2022-09-29T17:24:09;10.30;99.90
13472;DHT22;6808;49.444;11.034;2022-09-29T17:26:38;10.30;99.90
13472;DHT22;6808;49.444;11.034;2022-09-29T17:29:23;10.20;99.90
13472;DHT22;6808;49.444;11.034;2022-09-29T17:31:48;10.30;99.90
13472;DHT22;6808;49.444;11.034;2022-09-29T17:34:14;10.30;99.90
13472;DHT22;6808;49.444;11.034;2022-09-29T17:36:39;10.40;99.90
13472;DHT22;6808;49.444;11.034;2022-09-29T17:39:05;10.30;99.90
13472;DHT22;6808;49.444;11.034;2022-09-29T17:41:30;10.20;99.90
13472;DHT22;6808;49.444;11.034;2022-09-29T17:43:56;10.30;99.90
13472;DHT22;6808;49.444;11.034;2022-09-29T17:46:22;10.20;99.90
13472;DHT22;6808;49.444;11.034;2022-09-29T17:48:47;10.20;99.90
13472;DHT22;6808;49.444;11.034;2022-09-29T17:51:15;10.10;99.90
13472;DHT22;6808;49.444;11.034;2022-09-29T17:53:45;10.10;99.90
13472;DHT22;6808;49.444;11.034;2022-09-29T17:56:19;10.10;99.90
13472;DHT22;6808;49.444;11.034;2022-09-29T17:58:47;10.20;99.90
13472;DHT22;6808;49.444;11.034;2022-09-29T18:01:15;10.10;99.90
13472;DHT22;6808;49.444;11.034;2022-09-29T18:03:42;10.10;99.90
13472;DHT22;6808;49.444;11.034;2022-09-29T18:06:18;10.10;99.90
13472;DHT22;6808;49.444;11.034;2022-09-29T18:08:50;10.00;99.90
13472;DHT22;6808;49.444;11.034;2022-09-29T18:11:18;10.00;99.90
13472;DHT22;6808;49.444;11.034;2022-09-29T18:13:44;9.90;99.90
13472;DHT22;6808;49.444;11.034;2022-09-29T18:16:21;10.00;99.90
13472;DHT22;6808;49.444;11.034;2022-09-29T18:18:47;9.90;99.90
13472;DHT22;6808;49.444;11.034;2022-09-29T18:21:13;9.90;99.90
13472;DHT22;6808;49.444;11.034;2022-09-29T18:23:42;9.90;99.90
13472;DHT22;6808;49.444;11.034;2022-09-29T18:26:09;9.90;99.90
13472;DHT22;6808;49.444;11.034;2022-09-29T18:28:35;9.90;99.90
13472;DHT22;6808;49.444;11.034;2022-09-29T18:31:11;9.80;99.90
13472;DHT22;6808;49.444;11.034;2022-09-29T18:33:38;9.80;99.90
13472;DHT22;6808;49.444;11.034;2022-09-29T18:36:03;9.80;99.90
13472;DHT22;6808;49.444;11.034;2022-09-29T18:38:29;9.70;99.90
13472;DHT22;6808;49.444;11.034;2022-09-29T18:40:55;9.70;99.90
13472;DHT22;6808;49.444;11.034;2022-09-29T18:43:23;9.70;99.90
13472;DHT22;6808;49.444;11.034;2022-09-29T18:45:50;9.70;99.90
13472;DHT22;6808;49.444;11.034;2022-09-29T18:48:16;9.70;99.90
13472;DHT22;6808;49.444;11.034;2022-09-29T18:50:44;9.60;99.90
13472;DHT22;6808;49.444;11.034;2022-09-29T18:53:11;9.60;99.90
13472;DHT22;6808;49.444;11.034;2022-09-29T18:55:38;9.60;99.90
13472;DHT22;6808;49.444;11.034;2022-09-29T18:58:06;9.60;99.90
13472;DHT22;6808;49.444;11.034;2022-09-29T19:00:38;9.60;99.90
13472;DHT22;6808;49.444;11.034;2022-09-29T19:03:04;9.50;99.90
13472;DHT22;6808;49.444;11.034;2022-09-29T19:05:31;9.50;99.90
13472;DHT22;6808;49.444;11.034;2022-09-29T19:08:00;9.50;99.90